Terminal Aerodrome Forecast
Issued by NWS Tulsa, OK

Home | Current Version | Previous Version | Text Only | Print | Product List | Glossary On
Versions: 1 2 3 4 5 6 7 8 9 10 11 12 13 14 15 16 17 18 19
000
FTUS44 KTSA 060525
TAFFSM
TAF
KFSM 060525Z 0606/0706 08003KT 5SM BR SCT200
     FM061000 08004KT 4SM BR BKN025
     FM061700 20012KT P6SM SCT030 BKN050
     FM070000 21008KT P6SM SCT050 BKN250=

USA.gov is the U.S. government's official web portal to all federal, state and local government web resources and services.